Time;durP1;ratioP1;P1;durP2;ratioP2;P2;SDS_P1;SDS_P2;PMS_P1;PMS_P2;Temp;Humidity;BMP_temperature;BMP_pressure;BME280_temperature;BME280_humidity;BME280_pressure;Samples;Min_cycle;Max_cycle;Signal;HPM_P1;HPM_P2
2022/03/06 00:01:29;;;;;;;21.30;14.75;;;2.00;82.70;;;;;;5116007;27;20398;-77
2022/03/06 00:03:54;;;;;;;18.98;14.20;;;2.00;82.70;;;;;;5133139;27;20035;-77
2022/03/06 00:06:20;;;;;;;16.95;14.15;;;2.00;82.40;;;;;;5133262;27;20050;-78
2022/03/06 00:08:46;;;;;;;20.15;14.35;;;2.00;82.50;;;;;;5115579;27;20099;-77
2022/03/06 00:11:13;;;;;;;19.58;15.23;;;2.00;82.80;;;;;;5132994;27;20039;-77
2022/03/06 00:13:38;;;;;;;17.83;13.52;;;2.00;82.70;;;;;;5133246;27;20480;-77
2022/03/06 00:16:05;;;;;;;18.58;14.32;;;1.90;83.00;;;;;;5132988;27;20039;-77
2022/03/06 00:18:30;;;;;;;18.58;13.93;;;1.90;82.80;;;;;;5115683;27;20035;-77
2022/03/06 00:20:58;;;;;;;23.30;15.98;;;1.80;82.80;;;;;;5133119;27;20035;-78
2022/03/06 00:23:25;;;;;;;18.77;14.73;;;1.80;82.90;;;;;;5115602;27;20387;-77
2022/03/06 00:25:50;;;;;;;20.98;15.25;;;1.70;83.00;;;;;;5132840;27;20047;-78
2022/03/06 00:28:16;;;;;;;20.30;15.15;;;1.70;83.20;;;;;;5132684;27;20473;-78
2022/03/06 00:30:42;;;;;;;18.83;14.65;;;1.70;83.40;;;;;;5132505;27;20085;-77
2022/03/06 00:33:07;;;;;;;20.67;15.43;;;1.70;83.40;;;;;;5132905;27;20126;-78
2022/03/06 00:35:34;;;;;;;16.55;14.30;;;1.70;83.60;;;;;;5132545;27;20043;-78
2022/03/06 00:38:00;;;;;;;20.02;14.65;;;1.70;83.90;;;;;;5115522;28;20046;-77
2022/03/06 00:40:26;;;;;;;20.85;14.07;;;1.70;84.00;;;;;;5132560;28;20027;-77
2022/03/06 00:42:52;;;;;;;19.02;14.48;;;1.70;83.60;;;;;;5132950;28;20118;-77
2022/03/06 00:45:18;;;;;;;18.67;14.20;;;1.70;83.50;;;;;;5132514;28;20482;-78
2022/03/06 00:47:44;;;;;;;18.15;14.88;;;1.70;83.40;;;;;;5132503;28;20050;-78
2022/03/06 00:50:10;;;;;;;17.42;13.90;;;1.80;83.50;;;;;;5132710;28;20176;-78
2022/03/06 00:52:39;;;;;;;20.80;14.95;;;1.80;83.90;;;;;;5132513;28;20555;-77
2022/03/06 00:55:05;;;;;;;18.13;13.93;;;1.80;83.90;;;;;;5132522;28;20043;-77
2022/03/06 00:57:31;;;;;;;18.98;14.48;;;1.90;83.80;;;;;;5115449;28;20479;-77
2022/03/06 00:59:57;;;;;;;17.67;14.02;;;1.80;83.70;;;;;;5132274;28;20065;-77
2022/03/06 01:02:22;;;;;;;19.52;14.68;;;1.80;83.60;;;;;;5115572;28;20043;-77
2022/03/06 01:04:49;;;;;;;18.52;14.93;;;1.80;83.60;;;;;;5115338;28;20046;-77
2022/03/06 01:07:14;;;;;;;18.00;15.10;;;1.80;83.50;;;;;;5132461;28;20081;-77
2022/03/06 01:09:40;;;;;;;18.25;14.75;;;1.80;83.50;;;;;;5115049;28;20083;-77
2022/03/06 01:12:06;;;;;;;21.42;14.93;;;1.80;83.30;;;;;;5132547;28;20061;-77
2022/03/06 01:14:32;;;;;;;17.08;13.88;;;1.70;83.30;;;;;;5115163;28;20043;-77
2022/03/06 01:16:58;;;;;;;18.27;14.90;;;1.80;83.30;;;;;;5132323;28;20399;-77
2022/03/06 01:19:23;;;;;;;18.33;14.80;;;1.80;83.40;;;;;;5132212;28;20050;-77
2022/03/06 01:21:49;;;;;;;18.58;14.68;;;1.80;83.20;;;;;;5132526;28;20042;-77
2022/03/06 01:24:15;;;;;;;17.20;14.18;;;1.90;83.30;;;;;;5132189;28;20035;-77
2022/03/06 01:26:40;;;;;;;17.20;15.20;;;2.00;83.20;;;;;;5132451;28;20119;-77
2022/03/06 01:29:06;;;;;;;18.90;15.10;;;2.00;83.40;;;;;;5098118;28;20039;-77
2022/03/06 01:31:32;;;;;;;20.80;15.77;;;2.00;83.60;;;;;;5132229;28;20035;-77
2022/03/06 01:33:58;;;;;;;19.67;16.77;;;2.00;83.60;;;;;;5132544;27;20046;-77
2022/03/06 01:36:24;;;;;;;19.65;16.30;;;2.10;83.70;;;;;;5085230;27;20062;-77
2022/03/06 01:38:49;;;;;;;19.88;15.65;;;2.10;83.70;;;;;;5136050;27;20039;-77
2022/03/06 01:41:15;;;;;;;19.00;15.60;;;2.10;83.20;;;;;;5135834;27;20477;-77
2022/03/06 01:43:41;;;;;;;19.60;16.42;;;2.10;83.40;;;;;;5135787;27;20035;-77
2022/03/06 01:46:07;;;;;;;17.90;15.75;;;2.10;83.30;;;;;;5118513;27;20039;-77
2022/03/06 01:48:32;;;;;;;21.90;16.77;;;2.10;83.30;;;;;;5136014;27;20075;-77
2022/03/06 01:50:58;;;;;;;19.92;16.20;;;2.10;83.40;;;;;;5118933;27;20469;-77
2022/03/06 01:53:24;;;;;;;18.38;14.73;;;2.20;83.00;;;;;;5135925;27;20513;-77
2022/03/06 01:55:49;;;;;;;17.48;15.13;;;2.20;83.30;;;;;;5118600;27;20494;-77
2022/03/06 01:58:15;;;;;;;20.13;16.17;;;2.20;83.20;;;;;;5135533;27;20379;-77
2022/03/06 02:00:49;;;;;;;20.60;15.98;;;2.20;83.30;;;;;;5135434;27;20376;-77
2022/03/06 02:03:16;;;;;;;20.45;15.45;;;2.30;83.30;;;;;;5135561;27;20035;-77
2022/03/06 02:05:43;;;;;;;20.77;14.90;;;2.30;83.50;;;;;;5135692;27;20364;-77
2022/03/06 02:08:09;;;;;;;18.98;14.48;;;2.30;83.50;;;;;;5135213;27;20043;-77
2022/03/06 02:10:35;;;;;;;21.35;14.98;;;2.30;83.50;;;;;;5118015;27;20047;-77
2022/03/06 02:13:00;;;;;;;21.27;14.57;;;2.40;83.30;;;;;;5135497;27;20395;-77
2022/03/06 02:15:27;;;;;;;20.40;15.27;;;2.40;83.30;;;;;;5135446;27;20050;-77
2022/03/06 02:17:52;;;;;;;17.75;13.75;;;2.40;83.50;;;;;;5118066;27;20035;-77
2022/03/06 02:20:23;;;;;;;17.92;14.50;;;2.40;83.60;;;;;;5135323;27;20027;-77
2022/03/06 02:22:57;;;;;;;18.90;12.57;;;2.40;83.30;;;;;;5135107;27;20479;-77
2022/03/06 02:25:29;;;;;;;18.25;13.88;;;2.40;83.30;;;;;;5135000;27;20039;-77
2022/03/06 02:27:58;;;;;;;17.83;12.55;;;2.40;83.00;;;;;;5135291;27;20391;-77
2022/03/06 02:30:31;;;;;;;15.75;12.77;;;2.50;83.20;;;;;;5134869;27;20039;-77
2022/03/06 02:32:59;;;;;;;20.17;12.98;;;2.50;83.30;;;;;;5135149;27;20062;-77
2022/03/06 02:35:25;;;;;;;17.83;13.07;;;2.50;83.20;;;;;;5100730;27;20475;-77
2022/03/06 02:37:52;;;;;;;16.65;13.15;;;2.40;83.10;;;;;;5134685;27;20118;-77
2022/03/06 02:40:18;;;;;;;17.67;12.98;;;2.40;83.10;;;;;;5117618;27;20100;-77
2022/03/06 02:42:46;;;;;;;15.27;12.30;;;2.50;83.10;;;;;;5134646;27;20050;-77
2022/03/06 02:45:17;;;;;;;17.13;11.45;;;2.50;83.00;;;;;;5134561;27;20038;-77
2022/03/06 02:47:44;;;;;;;16.88;11.30;;;2.50;83.00;;;;;;5134174;27;20043;-77
2022/03/06 02:50:14;;;;;;;15.93;11.20;;;2.50;82.80;;;;;;5117445;27;20486;-77
2022/03/06 02:52:41;;;;;;;13.32;10.05;;;2.50;82.90;;;;;;5134526;27;20086;-77
2022/03/06 02:55:09;;;;;;;12.77;10.13;;;2.40;82.80;;;;;;5134700;27;20456;-77
2022/03/06 02:57:35;;;;;;;15.77;9.93;;;2.50;82.60;;;;;;5117315;27;20047;-77
2022/03/06 03:00:02;;;;;;;12.93;9.70;;;2.50;82.70;;;;;;5134323;27;20376;-77
2022/03/06 03:02:27;;;;;;;11.80;8.57;;;2.50;82.50;;;;;;5100179;27;20035;-77
2022/03/06 03:04:53;;;;;;;9.90;7.85;;;2.50;82.50;;;;;;5100070;27;20035;-77
2022/03/06 03:07:19;;;;;;;11.68;7.80;;;2.50;82.60;;;;;;5134135;27;20042;-77
2022/03/06 03:09:45;;;;;;;12.43;7.93;;;2.50;82.60;;;;;;5133902;27;20108;-77
2022/03/06 03:12:11;;;;;;;9.55;7.53;;;2.60;82.50;;;;;;5117010;27;20035;-77
2022/03/06 03:14:37;;;;;;;9.95;7.63;;;2.60;82.50;;;;;;5134007;27;20043;-77
2022/03/06 03:17:04;;;;;;;8.80;7.38;;;2.60;82.70;;;;;;5133958;27;20043;-77
2022/03/06 03:19:29;;;;;;;11.35;7.93;;;2.60;82.80;;;;;;5116689;27;20035;-77
2022/03/06 03:21:55;;;;;;;11.65;7.95;;;2.60;82.80;;;;;;5116776;27;20031;-77
2022/03/06 03:24:21;;;;;;;12.68;6.75;;;2.60;82.60;;;;;;5116970;27;20031;-77
2022/03/06 03:26:47;;;;;;;12.32;6.93;;;2.50;82.80;;;;;;5133803;27;20490;-77
2022/03/06 03:29:13;;;;;;;9.57;7.38;;;2.60;82.90;;;;;;5133678;27;20042;-77
2022/03/06 03:31:39;;;;;;;10.93;7.15;;;2.50;82.80;;;;;;5133961;27;20315;-77
2022/03/06 03:34:04;;;;;;;9.82;7.55;;;2.50;83.20;;;;;;5133872;27;20039;-77
2022/03/06 03:36:31;;;;;;;8.20;6.85;;;2.50;83.20;;;;;;5116411;27;20042;-77
2022/03/06 03:38:56;;;;;;;11.40;7.10;;;2.50;83.10;;;;;;5133488;27;20496;-77
2022/03/06 03:41:24;;;;;;;10.40;7.20;;;2.40;83.30;;;;;;5133960;27;20074;-77
2022/03/06 03:43:51;;;;;;;10.18;7.35;;;2.50;83.00;;;;;;5150821;27;20046;-77
2022/03/06 03:46:18;;;;;;;9.55;6.53;;;2.50;83.20;;;;;;5150790;27;20039;-77
2022/03/06 03:48:43;;;;;;;10.98;6.72;;;2.50;83.30;;;;;;5150575;27;20050;-77
2022/03/06 03:51:10;;;;;;;9.48;6.72;;;2.50;83.30;;;;;;5133352;27;20043;-77
2022/03/06 03:53:35;;;;;;;10.18;7.15;;;2.60;83.40;;;;;;5133323;27;20043;-77
2022/03/06 03:56:01;;;;;;;9.00;7.05;;;2.60;83.20;;;;;;5082283;27;20144;-77
2022/03/06 03:58:27;;;;;;;9.00;7.28;;;2.60;83.40;;;;;;5133378;27;20038;-77
2022/03/06 04:00:55;;;;;;;12.40;7.63;;;2.60;83.30;;;;;;5116016;27;20035;-77
2022/03/06 04:03:21;;;;;;;13.18;7.40;;;2.60;83.20;;;;;;5133177;27;20083;-77
2022/03/06 04:05:47;;;;;;;12.43;8.10;;;2.50;83.00;;;;;;5116416;27;20456;-76
2022/03/06 04:08:13;;;;;;;9.48;7.38;;;2.60;83.10;;;;;;5115797;27;20059;-77
2022/03/06 04:10:39;;;;;;;11.18;7.60;;;2.60;83.20;;;;;;5132926;27;20050;-77
2022/03/06 04:13:05;;;;;;;11.68;7.90;;;2.60;83.30;;;;;;5132998;27;20038;-77
2022/03/06 04:15:31;;;;;;;10.85;8.80;;;2.60;83.50;;;;;;5115871;27;20046;-77
2022/03/06 04:17:57;;;;;;;8.55;7.22;;;2.60;83.50;;;;;;5150035;27;20043;-77
2022/03/06 04:20:23;;;;;;;10.82;7.70;;;2.60;83.20;;;;;;5133048;27;20433;-77
2022/03/06 04:22:49;;;;;;;8.30;7.25;;;2.60;83.40;;;;;;5132768;27;20122;-77
2022/03/06 04:25:15;;;;;;;9.82;7.50;;;2.70;83.20;;;;;;5132869;27;20080;-77
2022/03/06 04:27:41;;;;;;;10.05;7.90;;;2.60;83.30;;;;;;5116015;27;20039;-77
2022/03/06 04:30:07;;;;;;;13.77;7.97;;;2.60;83.40;;;;;;5098698;28;20046;-76
2022/03/06 04:32:33;;;;;;;10.65;7.57;;;2.60;83.60;;;;;;5115522;28;20039;-76
2022/03/06 04:34:59;;;;;;;9.20;7.80;;;2.60;83.30;;;;;;5115872;28;20042;-77
2022/03/06 04:37:24;;;;;;;14.45;9.07;;;2.70;83.00;;;;;;5098629;28;20036;-77
2022/03/06 04:39:50;;;;;;;10.85;7.38;;;2.60;83.40;;;;;;5115811;28;20466;-77
2022/03/06 04:42:16;;;;;;;8.88;6.97;;;2.70;83.20;;;;;;5132593;28;20104;-77
2022/03/06 04:44:42;;;;;;;12.27;8.25;;;2.70;83.10;;;;;;5115714;28;20296;-77
2022/03/06 04:47:07;;;;;;;8.82;7.18;;;2.70;83.30;;;;;;5132567;28;20510;-77
2022/03/06 04:49:34;;;;;;;9.10;6.95;;;2.70;83.40;;;;;;5132480;28;20073;-77
2022/03/06 04:52:00;;;;;;;10.13;7.47;;;2.70;83.30;;;;;;5098812;28;20042;-77
2022/03/06 04:54:25;;;;;;;10.13;7.13;;;2.80;83.20;;;;;;5098422;28;20046;-77
2022/03/06 04:56:51;;;;;;;11.38;7.30;;;2.80;83.10;;;;;;5132305;28;20043;-77
2022/03/06 04:59:17;;;;;;;10.68;6.63;;;2.70;83.10;;;;;;5115561;28;20074;-77
2022/03/06 05:01:43;;;;;;;9.70;7.20;;;2.80;83.10;;;;;;5115501;28;20556;-77
2022/03/06 05:04:09;;;;;;;9.98;7.15;;;2.70;83.00;;;;;;5115656;28;20411;-77
2022/03/06 05:06:35;;;;;;;13.68;6.68;;;2.70;83.10;;;;;;5115306;28;20070;-77
2022/03/06 05:09:02;;;;;;;9.35;7.07;;;2.70;83.10;;;;;;5149989;27;20144;-77
2022/03/06 05:11:28;;;;;;;9.10;6.53;;;2.70;83.20;;;;;;5136789;27;20039;-77
2022/03/06 05:13:54;;;;;;;10.00;6.82;;;2.70;83.20;;;;;;5136484;27;20043;-77
2022/03/06 05:16:20;;;;;;;8.60;6.78;;;2.70;83.10;;;;;;5136315;27;20483;-77
2022/03/06 05:18:46;;;;;;;8.32;6.70;;;2.70;83.00;;;;;;5136299;27;20035;-77
2022/03/06 05:21:11;;;;;;;8.63;6.53;;;2.70;83.00;;;;;;5119462;27;20134;-77
2022/03/06 05:23:37;;;;;;;10.10;6.63;;;2.70;83.00;;;;;;5136238;27;20487;-77
2022/03/06 05:26:03;;;;;;;11.60;6.80;;;2.70;83.20;;;;;;5136183;27;20039;-77
2022/03/06 05:28:28;;;;;;;10.25;6.55;;;2.70;83.20;;;;;;5101945;27;20035;-77
2022/03/06 05:30:54;;;;;;;10.82;6.15;;;2.70;83.10;;;;;;5136062;27;20039;-77
2022/03/06 05:33:20;;;;;;;9.10;5.88;;;2.70;83.00;;;;;;5136354;27;20067;-77
2022/03/06 05:35:49;;;;;;;7.63;5.93;;;2.70;83.00;;;;;;5119001;27;20506;-77
2022/03/06 05:38:14;;;;;;;11.07;6.85;;;2.70;83.00;;;;;;5118910;27;20494;-77
2022/03/06 05:40:40;;;;;;;8.32;5.68;;;2.70;82.90;;;;;;5102122;27;20035;-77
2022/03/06 05:43:06;;;;;;;8.35;5.03;;;2.60;82.80;;;;;;5135916;27;20418;-77
2022/03/06 05:45:32;;;;;;;8.43;4.90;;;2.60;82.50;;;;;;5135660;27;20127;-77
2022/03/06 05:47:58;;;;;;;6.85;4.28;;;2.60;82.30;;;;;;5118711;27;20043;-77
2022/03/06 05:50:24;;;;;;;5.97;4.22;;;2.60;81.90;;;;;;5135900;27;20499;-77
2022/03/06 05:52:50;;;;;;;6.82;4.38;;;2.60;82.00;;;;;;5135698;27;20130;-77
2022/03/06 05:55:17;;;;;;;6.10;3.65;;;2.60;81.60;;;;;;5135917;27;20494;-77
2022/03/06 05:57:44;;;;;;;5.82;3.75;;;2.60;81.70;;;;;;5152841;27;20044;-77
2022/03/06 06:00:11;;;;;;;4.85;3.55;;;2.60;81.10;;;;;;5118512;27;20141;-77
2022/03/06 06:02:37;;;;;;;3.88;2.88;;;2.60;80.60;;;;;;5152773;27;20567;-77
2022/03/06 06:05:08;;;;;;;6.57;3.40;;;2.50;80.40;;;;;;5135542;27;20035;-77
2022/03/06 06:07:34;;;;;;;4.97;3.10;;;2.60;80.70;;;;;;5135453;27;20386;-77
2022/03/06 06:10:00;;;;;;;4.03;3.25;;;2.60;80.30;;;;;;5118468;27;20103;-77
2022/03/06 06:12:26;;;;;;;4.32;2.60;;;2.60;80.50;;;;;;5135565;27;20050;-77
2022/03/06 06:14:52;;;;;;;5.70;3.05;;;2.60;79.20;;;;;;5118028;27;20509;-77
2022/03/06 06:17:18;;;;;;;5.47;3.15;;;2.60;79.80;;;;;;5152355;27;20534;-77
2022/03/06 06:19:44;;;;;;;5.15;2.83;;;2.60;80.20;;;;;;5134841;27;20122;-77
2022/03/06 06:22:09;;;;;;;5.90;2.72;;;2.60;79.90;;;;;;5116656;27;20038;-77
2022/03/06 06:24:35;;;;;;;6.53;2.47;;;2.70;79.20;;;;;;5117920;27;20039;-77
2022/03/06 06:27:01;;;;;;;4.95;2.47;;;2.60;79.20;;;;;;5117930;27;20079;-77
2022/03/06 06:29:28;;;;;;;5.88;2.72;;;2.70;79.60;;;;;;5134835;27;20095;-77
2022/03/06 06:31:53;;;;;;;4.40;3.05;;;2.70;79.50;;;;;;5134993;27;20074;-77
2022/03/06 06:34:23;;;;;;;4.45;2.47;;;2.70;79.40;;;;;;5134894;27;20081;-77
2022/03/06 06:36:49;;;;;;;5.05;3.42;;;2.70;79.40;;;;;;5134773;27;20050;-77
2022/03/06 06:39:14;;;;;;;4.60;2.63;;;2.70;79.30;;;;;;5124286;27;20035;-77
2022/03/06 06:41:41;;;;;;;3.88;2.40;;;2.70;78.80;;;;;;5097194;28;20038;-77
2022/03/06 06:44:08;;;;;;;6.05;2.83;;;2.70;78.90;;;;;;5097578;28;20062;-78
2022/03/06 06:46:34;;;;;;;3.92;2.53;;;2.70;79.00;;;;;;5114284;28;20046;-78
2022/03/06 06:49:00;;;;;;;4.03;2.40;;;2.80;78.80;;;;;;5097157;28;20122;-78
2022/03/06 06:51:27;;;;;;;4.45;2.60;;;2.70;78.50;;;;;;5114076;28;20123;-77
2022/03/06 06:53:53;;;;;;;3.78;2.08;;;2.70;78.50;;;;;;5097021;28;20488;-78
2022/03/06 06:56:19;;;;;;;7.90;2.92;;;2.70;78.20;;;;;;5113801;28;20078;-78
2022/03/06 06:58:45;;;;;;;4.55;2.83;;;2.70;78.40;;;;;;5096870;28;20071;-77
2022/03/06 07:01:11;;;;;;;6.78;2.45;;;2.60;77.80;;;;;;5114049;28;20043;-77
2022/03/06 07:03:37;;;;;;;5.28;2.42;;;2.60;78.10;;;;;;5114082;28;20084;-78
2022/03/06 07:06:03;;;;;;;7.40;2.75;;;2.60;78.40;;;;;;5113759;28;20035;-77
2022/03/06 07:08:29;;;;;;;4.95;2.33;;;2.60;78.60;;;;;;5096422;28;20056;-78
2022/03/06 07:10:54;;;;;;;3.50;2.50;;;2.60;78.40;;;;;;5113567;28;20050;-77
2022/03/06 07:13:20;;;;;;;4.53;2.38;;;2.60;78.20;;;;;;5113391;28;20112;-77
2022/03/06 07:15:46;;;;;;;6.60;2.88;;;2.60;78.30;;;;;;5113532;28;20083;-78
2022/03/06 07:18:12;;;;;;;3.03;2.17;;;2.50;78.30;;;;;;5096847;28;20112;-77
2022/03/06 07:20:38;;;;;;;4.88;1.92;;;2.40;78.10;;;;;;5113654;28;20549;-77
2022/03/06 07:23:04;;;;;;;4.35;1.95;;;2.40;78.30;;;;;;5096446;28;20050;-76
2022/03/06 07:25:31;;;;;;;2.85;2.00;;;2.30;78.00;;;;;;5113261;28;20118;-78
2022/03/06 07:27:57;;;;;;;4.13;2.17;;;2.20;78.00;;;;;;5113288;28;20054;-78
2022/03/06 07:30:22;;;;;;;4.22;2.75;;;2.10;78.00;;;;;;5113162;28;20127;-77
2022/03/06 07:32:50;;;;;;;2.92;2.03;;;2.10;77.50;;;;;;5096183;28;20031;-77
2022/03/06 07:35:18;;;;;;;5.03;2.20;;;2.10;77.90;;;;;;5113308;27;20071;-77
2022/03/06 07:37:44;;;;;;;5.43;2.67;;;2.10;78.00;;;;;;5113040;28;20047;-78
2022/03/06 07:40:12;;;;;;;3.42;2.15;;;2.20;77.70;;;;;;5112946;28;20036;-75
2022/03/06 07:42:38;;;;;;;5.13;2.10;;;2.20;77.60;;;;;;5096209;28;20059;-76
2022/03/06 07:45:04;;;;;;;3.10;1.95;;;2.20;77.50;;;;;;5112979;28;20468;-76
2022/03/06 07:47:30;;;;;;;3.60;2.20;;;2.30;77.20;;;;;;5122299;27;20050;-77
2022/03/06 07:49:56;;;;;;;5.00;2.35;;;2.40;77.50;;;;;;5103923;27;20132;-77
2022/03/06 07:52:22;;;;;;;3.60;2.08;;;2.40;77.10;;;;;;5123886;27;20066;-77
2022/03/06 07:54:47;;;;;;;3.67;2.10;;;2.50;76.70;;;;;;5104672;27;20399;-77
2022/03/06 07:57:13;;;;;;;3.58;2.55;;;2.60;76.50;;;;;;5102713;28;20078;-77
2022/03/06 07:59:39;;;;;;;3.08;1.90;;;2.60;76.90;;;;;;5095656;28;20036;-77
2022/03/06 08:02:05;;;;;;;4.80;1.98;;;2.70;77.10;;;;;;5112653;28;20110;-77
2022/03/06 08:04:30;;;;;;;3.08;1.83;;;2.70;76.10;;;;;;5095883;28;20374;-76
2022/03/06 08:06:56;;;;;;;3.83;1.92;;;2.80;76.30;;;;;;5095278;28;20460;-76
2022/03/06 08:09:24;;;;;;;5.82;2.10;;;2.90;76.10;;;;;;5095375;28;20055;-76
2022/03/06 08:11:51;;;;;;;4.03;2.22;;;3.00;76.00;;;;;;5112540;28;20047;-76
2022/03/06 08:14:16;;;;;;;4.10;1.80;;;3.00;75.10;;;;;;5112442;28;20069;-77
2022/03/06 08:16:42;;;;;;;2.95;1.65;;;3.10;74.70;;;;;;5078603;28;20040;-78
2022/03/06 08:19:08;;;;;;;5.22;1.90;;;3.20;74.70;;;;;;5112546;28;20035;-77
2022/03/06 08:21:34;;;;;;;3.22;1.83;;;3.30;73.90;;;;;;5112404;28;20119;-79
2022/03/06 08:24:00;;;;;;;3.33;2.05;;;3.30;74.50;;;;;;5112387;28;20027;-78
2022/03/06 08:26:25;;;;;;;3.65;1.92;;;3.40;73.90;;;;;;5095329;28;20116;-78
2022/03/06 08:28:51;;;;;;;2.67;1.83;;;3.50;74.60;;;;;;5112574;28;20046;-78
2022/03/06 08:31:17;;;;;;;4.10;2.00;;;3.50;74.30;;;;;;5112232;28;20518;-78
2022/03/06 08:33:44;;;;;;;5.65;2.40;;;3.60;72.50;;;;;;5112187;28;20047;-78
2022/03/06 08:36:10;;;;;;;8.25;2.28;;;3.60;72.90;;;;;;5112297;28;20123;-78
2022/03/06 08:38:35;;;;;;;3.10;2.60;;;3.70;73.10;;;;;;5112057;28;20459;-76
2022/03/06 08:41:01;;;;;;;4.30;2.15;;;3.70;73.20;;;;;;5112413;28;20122;-78
2022/03/06 08:43:27;;;;;;;2.80;2.00;;;3.80;73.00;;;;;;5077880;28;20123;-76
2022/03/06 08:45:52;;;;;;;4.13;2.55;;;3.90;71.20;;;;;;5110929;28;20043;-77
2022/03/06 08:48:18;;;;;;;3.50;2.22;;;4.00;72.20;;;;;;5112310;28;20046;-76
2022/03/06 08:50:44;;;;;;;3.88;2.08;;;4.00;70.60;;;;;;5112279;28;20114;-77
2022/03/06 08:53:10;;;;;;;4.85;2.33;;;4.10;71.30;;;;;;5112075;28;20035;-78
2022/03/06 08:55:36;;;;;;;3.58;2.15;;;4.30;71.00;;;;;;5112002;28;20039;-77
2022/03/06 08:58:01;;;;;;;3.25;2.15;;;4.30;71.40;;;;;;5094957;28;20106;-76
2022/03/06 09:00:27;;;;;;;4.47;2.40;;;4.40;71.60;;;;;;5094942;28;20031;-76
2022/03/06 09:02:53;;;;;;;5.13;3.03;;;4.60;71.40;;;;;;5111880;28;20039;-77
2022/03/06 09:05:21;;;;;;;7.85;4.07;;;4.60;71.20;;;;;;5112030;28;20118;-77
2022/03/06 09:07:47;;;;;;;5.20;3.08;;;4.60;69.40;;;;;;5095286;28;20064;-77
2022/03/06 09:10:13;;;;;;;5.90;2.38;;;4.80;69.80;;;;;;5095010;28;20044;-77
2022/03/06 09:12:39;;;;;;;4.65;2.20;;;4.90;70.10;;;;;;5111963;28;20043;-77
2022/03/06 09:15:06;;;;;;;5.32;2.10;;;5.00;69.20;;;;;;5112157;28;20039;-76
2022/03/06 09:17:32;;;;;;;3.78;2.22;;;5.10;69.60;;;;;;5111747;28;20050;-77
2022/03/06 09:19:58;;;;;;;4.03;2.28;;;5.20;68.30;;;;;;5094737;28;20036;-76
2022/03/06 09:22:27;;;;;;;4.50;2.05;;;5.20;67.50;;;;;;5094798;28;20046;-77
2022/03/06 09:24:52;;;;;;;4.07;2.78;;;5.30;68.50;;;;;;5111760;28;20040;-76
2022/03/06 09:27:18;;;;;;;3.90;2.97;;;5.30;66.30;;;;;;5111711;28;20377;-76
2022/03/06 09:29:44;;;;;;;3.53;2.28;;;5.40;66.70;;;;;;5094666;28;20040;-76
2022/03/06 09:32:09;;;;;;;3.65;2.10;;;5.50;68.00;;;;;;5111695;28;20051;-77
2022/03/06 09:34:35;;;;;;;5.63;2.40;;;5.50;67.50;;;;;;5111900;28;20059;-77
2022/03/06 09:37:01;;;;;;;4.60;2.00;;;5.60;67.40;;;;;;5094612;28;20428;-77
2022/03/06 09:39:26;;;;;;;4.63;2.00;;;5.60;66.70;;;;;;5094856;28;20087;-77
2022/03/06 09:41:55;;;;;;;2.92;2.03;;;5.70;67.30;;;;;;5111634;28;20038;-78
2022/03/06 09:44:24;;;;;;;4.47;2.00;;;5.80;67.20;;;;;;5094598;28;20116;-77
2022/03/06 09:46:52;;;;;;;4.80;2.60;;;5.80;67.60;;;;;;5111605;28;20039;-77
2022/03/06 09:49:18;;;;;;;4.95;2.40;;;5.90;67.80;;;;;;5111696;28;20397;-77
2022/03/06 09:51:44;;;;;;;3.30;2.03;;;6.00;67.30;;;;;;5111491;28;20040;-76
2022/03/06 09:54:12;;;;;;;4.95;2.25;;;6.10;66.30;;;;;;5094552;28;20042;-77
2022/03/06 09:56:38;;;;;;;4.65;2.33;;;6.10;65.50;;;;;;5097472;28;20072;-77
2022/03/06 09:59:04;;;;;;;2.47;1.98;;;6.10;63.90;;;;;;5115008;28;20518;-78
2022/03/06 10:01:30;;;;;;;3.28;2.17;;;6.20;65.30;;;;;;5115351;28;20036;-77
2022/03/06 10:03:56;;;;;;;3.88;2.10;;;6.30;66.40;;;;;;5097931;28;20043;-76
2022/03/06 10:06:23;;;;;;;4.15;2.20;;;6.40;65.80;;;;;;5115468;28;20122;-77
2022/03/06 10:09:04;;;;;;;6.18;2.45;;;6.40;64.90;;;;;;5114720;28;20055;-77
2022/03/06 10:11:30;;;;;;;3.97;2.58;;;6.40;64.90;;;;;;5097962;28;20055;-77
2022/03/06 10:13:56;;;;;;;6.65;2.42;;;6.50;64.50;;;;;;5115061;28;20151;-77
2022/03/06 10:16:22;;;;;;;6.25;2.47;;;6.50;65.40;;;;;;5114714;28;20123;-77
2022/03/06 10:18:53;;;;;;;5.03;2.42;;;6.60;65.40;;;;;;5097905;28;20387;-77
2022/03/06 10:21:25;;;;;;;4.88;2.42;;;6.80;63.90;;;;;;5114725;28;20048;-77
2022/03/06 10:23:57;;;;;;;3.58;2.17;;;6.90;64.80;;;;;;5114655;28;20092;-77
2022/03/06 10:26:25;;;;;;;3.53;1.95;;;7.00;64.80;;;;;;5114601;28;20187;-77
2022/03/06 10:29:03;;;;;;;5.07;2.15;;;7.10;64.20;;;;;;5114453;28;20043;-77
2022/03/06 10:31:34;;;;;;;3.42;2.40;;;7.10;64.60;;;;;;5114448;28;20609;-78
2022/03/06 10:34:07;;;;;;;3.30;2.58;;;7.30;64.30;;;;;;5114742;28;20132;-77
2022/03/06 10:36:35;;;;;;;4.50;2.60;;;7.30;63.20;;;;;;5114365;28;20044;-78
2022/03/06 10:39:08;;;;;;;5.68;2.15;;;7.40;63.60;;;;;;5114191;28;20035;-76
2022/03/06 10:41:36;;;;;;;4.05;2.30;;;7.50;62.50;;;;;;5114460;28;20043;-78
2022/03/06 10:44:03;;;;;;;3.92;2.05;;;7.60;63.80;;;;;;5097250;28;20043;-76
2022/03/06 10:46:33;;;;;;;3.35;2.10;;;7.60;63.10;;;;;;5097473;28;20368;-77
2022/03/06 10:49:02;;;;;;;6.22;2.30;;;7.70;62.70;;;;;;5114105;28;20122;-77
2022/03/06 10:51:29;;;;;;;4.30;2.33;;;7.70;62.60;;;;;;5097349;28;20031;-76
2022/03/06 10:53:59;;;;;;;3.42;2.33;;;7.70;62.50;;;;;;5114237;28;20479;-77
2022/03/06 10:56:26;;;;;;;3.03;1.92;;;7.70;62.30;;;;;;5113918;28;20047;-76
2022/03/06 10:58:54;;;;;;;3.90;1.90;;;7.80;62.20;;;;;;5114057;28;20053;-77
2022/03/06 11:01:20;;;;;;;4.30;2.20;;;7.90;61.90;;;;;;5113919;28;20122;-76
2022/03/06 11:03:49;;;;;;;3.67;2.40;;;8.00;62.10;;;;;;5113854;28;20102;-76
2022/03/06 11:06:18;;;;;;;6.03;2.45;;;8.20;61.70;;;;;;5097006;28;20101;-77
2022/03/06 11:08:46;;;;;;;5.22;2.35;;;8.30;61.70;;;;;;5095806;28;20051;-77
2022/03/06 11:11:13;;;;;;;2.80;2.08;;;8.40;60.40;;;;;;5113666;28;20047;-77
2022/03/06 11:13:39;;;;;;;6.30;2.30;;;8.30;60.00;;;;;;5096769;28;20071;-77
2022/03/06 11:16:05;;;;;;;3.60;2.30;;;8.40;60.40;;;;;;5113763;28;20074;-77
2022/03/06 11:18:32;;;;;;;4.53;2.15;;;8.40;60.50;;;;;;5113341;28;20452;-77
2022/03/06 11:20:59;;;;;;;4.07;2.20;;;8.30;61.00;;;;;;5113472;28;20122;-77
2022/03/06 11:23:38;;;;;;;5.72;2.40;;;8.40;61.10;;;;;;5113486;28;20484;-77
2022/03/06 11:26:10;;;;;;;5.00;2.65;;;8.50;60.60;;;;;;5113547;28;20031;-77
2022/03/06 11:28:41;;;;;;;3.67;2.25;;;8.60;60.60;;;;;;5096300;28;20464;-76
2022/03/06 11:31:07;;;;;;;5.22;2.28;;;8.80;60.50;;;;;;5113589;28;20043;-77
2022/03/06 11:33:33;;;;;;;5.60;2.67;;;8.70;59.80;;;;;;5096271;28;20392;-77
2022/03/06 11:36:16;;;;;;;4.75;2.72;;;8.50;59.80;;;;;;5113060;28;20066;-77
2022/03/06 11:38:44;;;;;;;4.30;2.00;;;8.40;60.00;;;;;;5113117;28;20031;-77
2022/03/06 11:41:10;;;;;;;3.58;2.28;;;8.60;60.90;;;;;;5113395;28;20035;-76
2022/03/06 11:43:46;;;;;;;3.92;2.05;;;8.60;60.50;;;;;;5113268;28;20097;-77
2022/03/06 11:46:16;;;;;;;6.95;2.42;;;8.60;60.40;;;;;;5095932;28;20039;-76
2022/03/06 11:48:42;;;;;;;3.65;2.53;;;8.60;60.00;;;;;;5096158;28;20089;-77
2022/03/06 11:51:17;;;;;;;5.28;3.03;;;8.50;60.20;;;;;;5113184;28;20078;-77
2022/03/06 11:53:48;;;;;;;4.45;2.55;;;8.30;60.30;;;;;;5112825;28;20372;-78
2022/03/06 11:59:09;;;;;;;3.53;2.20;;;8.30;60.10;;;;;;5121688;27;20059;-79
2022/03/06 12:01:41;;;;;;;5.85;2.85;;;8.20;59.90;;;;;;5103802;27;20031;-78
2022/03/06 12:04:09;;;;;;;6.85;2.67;;;8.20;60.40;;;;;;5122752;27;20035;-78
2022/03/06 12:06:44;;;;;;;4.93;2.28;;;8.10;59.20;;;;;;5096447;28;20051;-77
2022/03/06 12:09:24;;;;;;;4.75;2.60;;;8.10;58.80;;;;;;5112212;28;20407;-77
2022/03/06 12:11:54;;;;;;;3.63;2.33;;;8.00;59.40;;;;;;5112543;28;20047;-77
2022/03/06 12:14:27;;;;;;;5.13;2.70;;;8.00;59.80;;;;;;5112526;28;20099;-77
2022/03/06 12:17:02;;;;;;;4.50;2.38;;;8.00;60.30;;;;;;5112533;28;20129;-77
2022/03/06 12:19:29;;;;;;;5.95;2.40;;;8.10;60.80;;;;;;5111664;28;20036;-77
2022/03/06 12:22:17;;;;;;;4.63;2.22;;;8.10;60.80;;;;;;5112677;28;20040;-77
2022/03/06 12:24:45;;;;;;;4.07;2.60;;;8.10;60.00;;;;;;5112318;28;20114;-77
2022/03/06 12:27:12;;;;;;;3.30;2.17;;;8.10;60.30;;;;;;5112326;28;20096;-77
2022/03/06 12:29:47;;;;;;;7.28;2.97;;;8.10;59.90;;;;;;5112233;28;20043;-77
2022/03/06 12:32:40;;;;;;;5.07;2.80;;;8.20;60.40;;;;;;5112253;28;20085;-78
2022/03/06 12:35:15;;;;;;;4.20;2.63;;;8.40;60.80;;;;;;5109913;28;20059;-78
2022/03/06 12:37:42;;;;;;;;;;;8.40;60.00;;;;;;5112577;28;20042;-77
2022/03/06 12:40:19;;;;;;;7.63;3.42;;;8.30;59.40;;;;;;5112411;28;19915;-76
2022/03/06 12:42:51;;;;;;;34.97;4.50;;;8.40;58.60;;;;;;5095707;28;20384;-79
2022/03/06 12:45:19;;;;;;;15.02;3.22;;;8.40;58.70;;;;;;5095219;28;20476;-75
2022/03/06 12:47:46;;;;;;;4.22;2.60;;;8.40;59.50;;;;;;5112338;28;20043;-78
2022/03/06 12:50:16;;;;;;;10.48;2.78;;;8.50;60.20;;;;;;5112013;28;20111;-77
2022/03/06 12:52:43;;;;;;;23.23;4.85;;;8.50;60.40;;;;;;5112138;28;20096;-79